Back to Top

Language: 

My Weather Underground Personal Weather Station Historical Data with Graphs...

Delerius Weather Station Historical Data
Daily Summary for February 8, 2017 Units:  Both    English   Metric
« Previous Day
Next Day »
Daily Weekly Monthly Yearly Custom
  High: Low: Average:
Temperature: 39.5 °F /  4.2 °C 35.1 °F /  1.7 °C 37.5 °F /  3.1 °C
Dew Point: 38.3 °F /  3.5 °C 33.4 °F /  0.8 °C 35.9 °F /  2.2 °C
Humidity: 97 % 88 % 94 %
Wind Speed: 4.0 mph /  6.4 km/h - 1.2 mph /  1.9 km/h
Wind Gust: 20.0 mph /  32.2 km/h - -
Wind:- - East
Pressure: 30.47 in /  1031.7 hPa 30.15 in /  1020.9 hPa -
Precipitation: 0.03 in /  0.76 mm    
Historical Graphs
 
 
Tabular Data for February 8, 2017
Time Temperature Dew Point Pressure Wind Wind Speed Wind Gust Humidity Rainfall Rate (Hourly) solar Conditions
00:00 38.3 °F /  3.5 °C 36.7 °F /  2.6 °C 30.15 in /  1020.9 hPa Calm   20.0 mph /  32.2 km/h 94 % 0.00 in /  0 mm 0 W/m2
00:05 38.4 °F /  3.6 °C 37.1 °F /  2.8 °C 30.16 in /  1021.2 hPa Calm   20.0 mph /  32.2 km/h 95 % 0.00 in /  0 mm 0 W/m2
00:15 38.4 °F /  3.6 °C 37.1 °F /  2.8 °C 30.16 in /  1021.2 hPa Calm     95 % 0.00 in /  0 mm 0 W/m2
00:25 38.1 °F /  3.4 °C 36.5 °F /  2.5 °C 30.16 in /  1021.2 hPa Calm     94 % 0.00 in /  0 mm 0 W/m2
00:30 38.0 °F /  3.3 °C 36.4 °F /  2.4 °C 30.16 in /  1021.2 hPa Calm     94 % 0.00 in /  0 mm 0 W/m2
00:35 37.9 °F /  3.3 °C 36.3 °F /  2.4 °C 30.16 in /  1021.2 hPa Calm     94 % 0.00 in /  0 mm 0 W/m2
00:40 37.8 °F /  3.2 °C 36.5 °F /  2.5 °C 30.16 in /  1021.2 hPa Calm     95 % 0.00 in /  0 mm 0 W/m2
00:45 37.7 °F /  3.2 °C 36.1 °F /  2.3 °C 30.16 in /  1021.2 hPa Calm     94 % 0.00 in /  0 mm 0 W/m2
00:50 37.5 °F /  3.1 °C 35.9 °F /  2.2 °C 30.16 in /  1021.2 hPa Calm     94 % 0.00 in /  0 mm 0 W/m2
01:00 37.1 °F /  2.8 °C 35.5 °F /  1.9 °C 30.16 in /  1021.2 hPa Calm     94 % 0.00 in /  0 mm 0 W/m2
01:05 37.0 °F /  2.8 °C 35.4 °F /  1.9 °C 30.16 in /  1021.2 hPa Calm   2.0 mph /  3.2 km/h 94 % 0.00 in /  0 mm 0 W/m2
01:10 37.0 °F /  2.8 °C 35.7 °F /  2.1 °C 30.16 in /  1021.2 hPa Calm   2.0 mph /  3.2 km/h 95 % 0.00 in /  0 mm 0 W/m2
01:15 37.0 °F /  2.8 °C 35.7 °F /  2.1 °C 30.16 in /  1021.2 hPa Calm   2.0 mph /  3.2 km/h 95 % 0.00 in /  0 mm 0 W/m2
01:20 36.9 °F /  2.7 °C 35.6 °F /  2 °C 30.16 in /  1021.2 hPa Calm   2.0 mph /  3.2 km/h 95 % 0.00 in /  0 mm 0 W/m2
01:30 36.8 °F /  2.7 °C 35.5 °F /  1.9 °C 30.16 in /  1021.2 hPa Calm   2.0 mph /  3.2 km/h 95 % 0.00 in /  0 mm 0 W/m2
01:35 36.6 °F /  2.6 °C 35.0 °F /  1.7 °C 30.16 in /  1021.2 hPa Calm   2.0 mph /  3.2 km/h 94 % 0.00 in /  0 mm 0 W/m2
01:40 36.2 °F /  2.3 °C 34.6 °F /  1.4 °C 30.17 in /  1021.6 hPa Calm   2.0 mph /  3.2 km/h 94 % 0.00 in /  0 mm 0 W/m2
01:45 36.0 °F /  2.2 °C 34.4 °F /  1.3 °C 30.17 in /  1021.6 hPa Calm   2.0 mph /  3.2 km/h 94 % 0.00 in /  0 mm 0 W/m2
01:50 35.9 °F /  2.2 °C 34.6 °F /  1.4 °C 30.17 in /  1021.6 hPa Calm   2.0 mph /  3.2 km/h 95 % 0.00 in /  0 mm 0 W/m2
01:55 35.8 °F /  2.1 °C 34.5 °F /  1.4 °C 30.18 in /  1021.9 hPa Calm   2.0 mph /  3.2 km/h 95 % 0.00 in /  0 mm 0 W/m2
02:05 35.8 °F /  2.1 °C 34.5 °F /  1.4 °C 30.18 in /  1021.9 hPa Calm   2.0 mph /  3.2 km/h 95 % 0.00 in /  0 mm 0 W/m2
02:10 35.9 °F /  2.2 °C 34.6 °F /  1.4 °C 30.18 in /  1021.9 hPa Calm   2.0 mph /  3.2 km/h 95 % 0.00 in /  0 mm 0 W/m2
02:15 36.0 °F /  2.2 °C 35.0 °F /  1.7 °C 30.18 in /  1021.9 hPa Calm   2.0 mph /  3.2 km/h 96 % 0.00 in /  0 mm 0 W/m2
02:20 36.0 °F /  2.2 °C 34.7 °F /  1.5 °C 30.18 in /  1021.9 hPa Calm   2.0 mph /  3.2 km/h 95 % 0.00 in /  0 mm 0 W/m2
02:25 36.0 °F /  2.2 °C 34.7 °F /  1.5 °C 30.19 in /  1022.2 hPa Calm   2.0 mph /  3.2 km/h 95 % 0.00 in /  0 mm 0 W/m2
02:35 36.1 °F /  2.3 °C 35.1 °F /  1.7 °C 30.19 in /  1022.2 hPa Calm   2.0 mph /  3.2 km/h 96 % 0.00 in /  0 mm 0 W/m2
02:40 36.1 °F /  2.3 °C 34.8 °F /  1.6 °C 30.19 in /  1022.2 hPa Calm   2.0 mph /  3.2 km/h 95 % 0.00 in /  0 mm 0 W/m2
02:45 36.0 °F /  2.2 °C 34.7 °F /  1.5 °C 30.19 in /  1022.2 hPa Calm   2.0 mph /  3.2 km/h 95 % 0.00 in /  0 mm 0 W/m2
02:50 36.0 °F /  2.2 °C 34.7 °F /  1.5 °C 30.19 in /  1022.2 hPa Calm   2.0 mph /  3.2 km/h 95 % 0.00 in /  0 mm 0 W/m2
02:55 36.1 °F /  2.3 °C 35.1 °F /  1.7 °C 30.19 in /  1022.2 hPa Calm   2.0 mph /  3.2 km/h 96 % 0.00 in /  0 mm 0 W/m2
03:10 36.3 °F /  2.4 °C 35.3 °F /  1.8 °C 30.20 in /  1022.6 hPa Calm   2.0 mph /  3.2 km/h 96 % 0.00 in /  0 mm 0 W/m2
03:15 36.4 °F /  2.4 °C 35.4 °F /  1.9 °C 30.20 in /  1022.6 hPa Calm   2.0 mph /  3.2 km/h 96 % 0.00 in /  0 mm 0 W/m2
03:20 36.5 °F /  2.5 °C 35.5 °F /  1.9 °C 30.20 in /  1022.6 hPa Calm   2.0 mph /  3.2 km/h 96 % 0.00 in /  0 mm 0 W/m2
03:25 36.5 °F /  2.5 °C 35.5 °F /  1.9 °C 30.20 in /  1022.6 hPa Calm   2.0 mph /  3.2 km/h 96 % 0.00 in /  0 mm 0 W/m2
03:30 36.6 °F /  2.6 °C 35.6 °F /  2 °C 30.21 in /  1022.9 hPa Calm   2.0 mph /  3.2 km/h 96 % 0.00 in /  0 mm 0 W/m2
03:40 36.7 °F /  2.6 °C 35.7 °F /  2.1 °C 30.21 in /  1022.9 hPa Calm   2.0 mph /  3.2 km/h 96 % 0.00 in /  0 mm 0 W/m2
03:45 36.8 °F /  2.7 °C 35.8 °F /  2.1 °C 30.22 in /  1023.2 hPa Calm   2.0 mph /  3.2 km/h 96 % 0.00 in /  0 mm 0 W/m2
03:50 36.9 °F /  2.7 °C 35.9 °F /  2.2 °C 30.22 in /  1023.2 hPa Calm   2.0 mph /  3.2 km/h 96 % 0.00 in /  0 mm 0 W/m2
03:55 36.9 °F /  2.7 °C 35.9 °F /  2.2 °C 30.22 in /  1023.2 hPa Calm   2.0 mph /  3.2 km/h 96 % 0.00 in /  0 mm 0 W/m2
04:00 37.1 °F /  2.8 °C 36.1 °F /  2.3 °C 30.22 in /  1023.2 hPa Calm   2.0 mph /  3.2 km/h 96 % 0.00 in /  0 mm 0 W/m2
04:05 37.3 °F /  2.9 °C 36.3 °F /  2.4 °C 30.23 in /  1023.6 hPa Calm   2.0 mph /  3.2 km/h 96 % 0.00 in /  0 mm 0 W/m2
04:15 37.8 °F /  3.2 °C 36.8 °F /  2.7 °C 30.23 in /  1023.6 hPa NNE 1.0 mph /  1.6 km/h 4.0 mph /  6.4 km/h 96 % 0.00 in /  0 mm 0 W/m2
04:20 38.0 °F /  3.3 °C 37.0 °F /  2.8 °C 30.23 in /  1023.6 hPa NNE 2.0 mph /  3.2 km/h 4.0 mph /  6.4 km/h 96 % 0.00 in /  0 mm 0 W/m2
04:25 38.1 °F /  3.4 °C 37.1 °F /  2.8 °C 30.23 in /  1023.6 hPa NE 3.0 mph /  4.8 km/h 4.0 mph /  6.4 km/h 96 % 0.00 in /  0 mm 0 W/m2
04:30 38.3 °F /  3.5 °C 37.3 °F /  2.9 °C 30.24 in /  1023.9 hPa NNE 2.0 mph /  3.2 km/h 2.0 mph /  3.2 km/h 96 % 0.00 in /  0 mm 0 W/m2
04:35 38.4 °F /  3.6 °C 37.4 °F /  3 °C 30.24 in /  1023.9 hPa NNE 1.0 mph /  1.6 km/h 2.0 mph /  3.2 km/h 96 % 0.00 in /  0 mm 0 W/m2
04:45 38.5 °F /  3.6 °C 37.5 °F /  3.1 °C 30.24 in /  1023.9 hPa NNE 1.0 mph /  1.6 km/h 2.0 mph /  3.2 km/h 96 % 0.00 in /  0 mm 0 W/m2
04:50 38.5 °F /  3.6 °C 37.5 °F /  3.1 °C 30.24 in /  1023.9 hPa NNE 1.0 mph /  1.6 km/h 1.0 mph /  1.6 km/h 96 % 0.00 in /  0 mm 0 W/m2
04:55 38.5 °F /  3.6 °C 37.5 °F /  3.1 °C 30.24 in /  1023.9 hPa NE 1.0 mph /  1.6 km/h 2.0 mph /  3.2 km/h 96 % 0.00 in /  0 mm 0 W/m2
05:00 38.6 °F /  3.7 °C 37.6 °F /  3.1 °C 30.25 in /  1024.3 hPa North 1.0 mph /  1.6 km/h 2.0 mph /  3.2 km/h 96 % 0.00 in /  0 mm 0 W/m2
05:05 38.6 °F /  3.7 °C 37.6 °F /  3.1 °C 30.25 in /  1024.3 hPa NNE 1.0 mph /  1.6 km/h 2.0 mph /  3.2 km/h 96 % 0.00 in /  0 mm 0 W/m2
05:15 38.8 °F /  3.8 °C 37.8 °F /  3.2 °C 30.25 in /  1024.3 hPa NNE 2.0 mph /  3.2 km/h 3.0 mph /  4.8 km/h 96 % 0.00 in /  0 mm 0 W/m2
05:20 38.8 °F /  3.8 °C 37.8 °F /  3.2 °C 30.26 in /  1024.6 hPa NNE 2.0 mph /  3.2 km/h 3.0 mph /  4.8 km/h 96 % 0.00 in /  0 mm 0 W/m2
05:25 38.9 °F /  3.8 °C 37.9 °F /  3.3 °C 30.26 in /  1024.6 hPa NE 3.0 mph /  4.8 km/h 3.0 mph /  4.8 km/h 96 % 0.00 in /  0 mm 0 W/m2
05:30 38.9 °F /  3.8 °C 37.9 °F /  3.3 °C 30.26 in /  1024.6 hPa NE 2.0 mph /  3.2 km/h 2.0 mph /  3.2 km/h 96 % 0.00 in /  0 mm 0 W/m2
05:35 39.0 °F /  3.9 °C 38.0 °F /  3.3 °C 30.26 in /  1024.6 hPa Calm   2.0 mph /  3.2 km/h 96 % 0.00 in /  0 mm 0 W/m2
05:40 39.0 °F /  3.9 °C 38.0 °F /  3.3 °C 30.26 in /  1024.6 hPa Calm   2.0 mph /  3.2 km/h 96 % 0.00 in /  0 mm 0 W/m2
05:50 39.1 °F /  3.9 °C 38.1 °F /  3.4 °C 30.27 in /  1024.9 hPa ENE 1.0 mph /  1.6 km/h 1.0 mph /  1.6 km/h 96 % 0.00 in /  0 mm 0 W/m2
05:55 39.2 °F /  4 °C 38.2 °F /  3.4 °C 30.27 in /  1024.9 hPa Calm   5.0 mph /  8 km/h 96 % 0.00 in /  0 mm 0 W/m2
06:00 39.2 °F /  4 °C 38.2 °F /  3.4 °C 30.27 in /  1024.9 hPa ENE 1.0 mph /  1.6 km/h 1.0 mph /  1.6 km/h 96 % 0.00 in /  0 mm 0 W/m2
06:10 39.3 °F /  4.1 °C 38.3 °F /  3.5 °C 30.27 in /  1024.9 hPa East 1.0 mph /  1.6 km/h 1.0 mph /  1.6 km/h 96 % 0.00 in /  0 mm 0 W/m2
06:15 39.3 °F /  4.1 °C 38.3 °F /  3.5 °C 30.27 in /  1024.9 hPa ENE 1.0 mph /  1.6 km/h 2.0 mph /  3.2 km/h 96 % 0.00 in /  0 mm 0 W/m2
06:20 39.2 °F /  4 °C 38.2 °F /  3.4 °C 30.27 in /  1024.9 hPa East 1.0 mph /  1.6 km/h 1.0 mph /  1.6 km/h 96 % 0.00 in /  0 mm 0 W/m2
06:30 39.2 °F /  4 °C 38.2 °F /  3.4 °C 30.28 in /  1025.3 hPa NE 2.0 mph /  3.2 km/h 2.0 mph /  3.2 km/h 96 % 0.00 in /  0 mm 0 W/m2
06:35 39.2 °F /  4 °C 38.2 °F /  3.4 °C 30.28 in /  1025.3 hPa ENE 2.0 mph /  3.2 km/h 2.0 mph /  3.2 km/h 96 % 0.00 in /  0 mm 0 W/m2
06:40 39.1 °F /  3.9 °C 38.1 °F /  3.4 °C 30.28 in /  1025.3 hPa East 2.0 mph /  3.2 km/h 3.0 mph /  4.8 km/h 96 % 0.00 in /  0 mm 0 W/m2
06:45 39.1 °F /  3.9 °C 38.1 °F /  3.4 °C 30.28 in /  1025.3 hPa ENE 1.0 mph /  1.6 km/h 3.0 mph /  4.8 km/h 96 % 0.00 in /  0 mm 0 W/m2
06:50 39.1 °F /  3.9 °C 38.3 °F /  3.5 °C 30.28 in /  1025.3 hPa East 1.0 mph /  1.6 km/h 4.0 mph /  6.4 km/h 97 % 0.00 in /  0 mm 0 W/m2
07:00 39.0 °F /  3.9 °C 38.2 °F /  3.4 °C 30.28 in /  1025.3 hPa East 3.0 mph /  4.8 km/h 5.0 mph /  8 km/h 97 % 0.00 in /  0 mm 0 W/m2
07:05 38.9 °F /  3.8 °C 38.1 °F /  3.4 °C 30.29 in /  1025.6 hPa NE 4.0 mph /  6.4 km/h 5.0 mph /  8 km/h 97 % 0.00 in /  0 mm 0 W/m2
07:10 38.9 °F /  3.8 °C 38.1 °F /  3.4 °C 30.30 in /  1026 hPa ENE 3.0 mph /  4.8 km/h 3.0 mph /  4.8 km/h 97 % 0.00 in /  0 mm 0 W/m2
07:15 38.8 °F /  3.8 °C 38.0 °F /  3.3 °C 30.30 in /  1026 hPa ENE 2.0 mph /  3.2 km/h 5.0 mph /  8 km/h 97 % 0.00 in /  0 mm 0 W/m2
07:20 38.7 °F /  3.7 °C 37.9 °F /  3.3 °C 30.30 in /  1026 hPa ESE 3.0 mph /  4.8 km/h 3.0 mph /  4.8 km/h 97 % 0.00 in /  0 mm 0 W/m2
07:30 38.5 °F /  3.6 °C 37.5 °F /  3.1 °C 30.31 in /  1026.3 hPa ESE 3.0 mph /  4.8 km/h 3.0 mph /  4.8 km/h 96 % 0.00 in /  0 mm 0 W/m2
07:35 38.5 °F /  3.6 °C 37.5 °F /  3.1 °C 30.31 in /  1026.3 hPa East 3.0 mph /  4.8 km/h 3.0 mph /  4.8 km/h 96 % 0.00 in /  0 mm 0 W/m2
07:40 38.5 °F /  3.6 °C 37.5 °F /  3.1 °C 30.31 in /  1026.3 hPa ESE 3.0 mph /  4.8 km/h 3.0 mph /  4.8 km/h 96 % 0.00 in /  0 mm 0 W/m2
07:45 38.4 °F /  3.6 °C 37.6 °F /  3.1 °C 30.32 in /  1026.6 hPa ESE 3.0 mph /  4.8 km/h 4.0 mph /  6.4 km/h 97 % 0.00 in /  0 mm 0 W/m2
07:50 38.5 °F /  3.6 °C 37.7 °F /  3.2 °C 30.32 in /  1026.6 hPa ESE 2.0 mph /  3.2 km/h 4.0 mph /  6.4 km/h 97 % 0.00 in /  0 mm 0 W/m2
07:55 38.4 °F /  3.6 °C 37.6 °F /  3.1 °C 30.32 in /  1026.6 hPa East 2.0 mph /  3.2 km/h 5.0 mph /  8 km/h 97 % 0.00 in /  0 mm 0 W/m2
08:05 38.3 °F /  3.5 °C 37.5 °F /  3.1 °C 30.32 in /  1026.6 hPa East 2.0 mph /  3.2 km/h 4.0 mph /  6.4 km/h 97 % 0.05 in /  1.27 mm 5 W/m2
08:10 38.3 °F /  3.5 °C 37.5 °F /  3.1 °C 30.32 in /  1026.6 hPa East 2.0 mph /  3.2 km/h 2.0 mph /  3.2 km/h 97 % 0.05 in /  1.27 mm 5 W/m2
08:15 38.3 °F /  3.5 °C 37.5 °F /  3.1 °C 30.33 in /  1027 hPa East 1.0 mph /  1.6 km/h 6.0 mph /  9.7 km/h 97 % 0.06 in /  1.52 mm 5 W/m2
08:20 38.2 °F /  3.4 °C 37.2 °F /  2.9 °C 30.33 in /  1027 hPa ESE 1.0 mph /  1.6 km/h 1.0 mph /  1.6 km/h 96 % 0.06 in /  1.52 mm 5 W/m2
08:25 38.2 °F /  3.4 °C 37.2 °F /  2.9 °C 30.33 in /  1027 hPa ENE 1.0 mph /  1.6 km/h 2.0 mph /  3.2 km/h 96 % 0.05 in /  1.27 mm 0 W/m2
08:35 38.1 °F /  3.4 °C 37.1 °F /  2.8 °C 30.34 in /  1027.3 hPa East 2.0 mph /  3.2 km/h 2.0 mph /  3.2 km/h 96 % 0.04 in /  1.02 mm 0 W/m2
08:40 38.0 °F /  3.3 °C 37.0 °F /  2.8 °C 30.34 in /  1027.3 hPa East 3.0 mph /  4.8 km/h 4.0 mph /  6.4 km/h 96 % 0.04 in /  1.02 mm 5 W/m2
08:45 37.9 °F /  3.3 °C 37.1 °F /  2.8 °C 30.34 in /  1027.3 hPa East 2.0 mph /  3.2 km/h 4.0 mph /  6.4 km/h 97 % 0.00 in /  0 mm 5 W/m2
08:50 37.9 °F /  3.3 °C 37.1 °F /  2.8 °C 30.34 in /  1027.3 hPa East 2.0 mph /  3.2 km/h 2.0 mph /  3.2 km/h 97 % 0.00 in /  0 mm 5 W/m2
08:55 37.9 °F /  3.3 °C 37.1 °F /  2.8 °C 30.34 in /  1027.3 hPa ENE 2.0 mph /  3.2 km/h 4.0 mph /  6.4 km/h 97 % 0.00 in /  0 mm 5 W/m2
09:00 37.8 °F /  3.2 °C 37.0 °F /  2.8 °C 30.34 in /  1027.3 hPa ENE 2.0 mph /  3.2 km/h 5.0 mph /  8 km/h 97 % 0.00 in /  0 mm 5 W/m2
09:10 37.8 °F /  3.2 °C 37.0 °F /  2.8 °C 30.34 in /  1027.3 hPa East 3.0 mph /  4.8 km/h 3.0 mph /  4.8 km/h 97 % 0.00 in /  0 mm 5 W/m2
09:15 37.7 °F /  3.2 °C 36.9 °F /  2.7 °C 30.35 in /  1027.7 hPa East 3.0 mph /  4.8 km/h 3.0 mph /  4.8 km/h 97 % 0.00 in /  0 mm 5 W/m2
09:20 37.7 °F /  3.2 °C 36.9 °F /  2.7 °C 30.35 in /  1027.7 hPa East 3.0 mph /  4.8 km/h 5.0 mph /  8 km/h 97 % 0.00 in /  0 mm 5 W/m2
09:25 37.7 °F /  3.2 °C 36.9 °F /  2.7 °C 30.35 in /  1027.7 hPa ESE 2.0 mph /  3.2 km/h 5.0 mph /  8 km/h 97 % 0.00 in /  0 mm 7 W/m2
09:30 37.7 °F /  3.2 °C 36.9 °F /  2.7 °C 30.35 in /  1027.7 hPa East 3.0 mph /  4.8 km/h 3.0 mph /  4.8 km/h 97 % 0.00 in /  0 mm 7 W/m2
09:40 37.7 °F /  3.2 °C 36.9 °F /  2.7 °C 30.35 in /  1027.7 hPa ESE 2.0 mph /  3.2 km/h 5.0 mph /  8 km/h 97 % 0.00 in /  0 mm 19 W/m2
09:45 37.7 °F /  3.2 °C 36.9 °F /  2.7 °C 30.35 in /  1027.7 hPa East 2.0 mph /  3.2 km/h 5.0 mph /  8 km/h 97 % 0.00 in /  0 mm 21 W/m2
09:50 37.7 °F /  3.2 °C 36.9 °F /  2.7 °C 30.35 in /  1027.7 hPa ESE 2.0 mph /  3.2 km/h 4.0 mph /  6.4 km/h 97 % 0.00 in /  0 mm 18 W/m2
09:55 37.6 °F /  3.1 °C 36.8 °F /  2.7 °C 30.35 in /  1027.7 hPa ESE 2.0 mph /  3.2 km/h 4.0 mph /  6.4 km/h 97 % 0.00 in /  0 mm 19 W/m2
10:00 37.6 °F /  3.1 °C 36.8 °F /  2.7 °C 30.35 in /  1027.7 hPa ENE 3.0 mph /  4.8 km/h 3.0 mph /  4.8 km/h 97 % 0.00 in /  0 mm 18 W/m2
10:05 37.7 °F /  3.2 °C 36.9 °F /  2.7 °C 30.35 in /  1027.7 hPa East 2.0 mph /  3.2 km/h 3.0 mph /  4.8 km/h 97 % 0.00 in /  0 mm 14 W/m2
10:15 37.7 °F /  3.2 °C 36.9 °F /  2.7 °C 30.36 in /  1028 hPa East 2.0 mph /  3.2 km/h 2.0 mph /  3.2 km/h 97 % 0.00 in /  0 mm 47 W/m2
10:20 37.7 °F /  3.2 °C 36.9 °F /  2.7 °C 30.36 in /  1028 hPa East 1.0 mph /  1.6 km/h 2.0 mph /  3.2 km/h 97 % 0.00 in /  0 mm 35 W/m2
10:25 37.8 °F /  3.2 °C 37.0 °F /  2.8 °C 30.36 in /  1028 hPa East 1.0 mph /  1.6 km/h 2.0 mph /  3.2 km/h 97 % 0.00 in /  0 mm 33 W/m2
10:30 37.8 °F /  3.2 °C 37.0 °F /  2.8 °C 30.36 in /  1028 hPa East 1.0 mph /  1.6 km/h 1.0 mph /  1.6 km/h 97 % 0.00 in /  0 mm 32 W/m2
10:35 37.8 °F /  3.2 °C 37.0 °F /  2.8 °C 30.36 in /  1028 hPa East 1.0 mph /  1.6 km/h 2.0 mph /  3.2 km/h 97 % 0.00 in /  0 mm 44 W/m2
10:45 37.9 °F /  3.3 °C 37.1 °F /  2.8 °C 30.36 in /  1028 hPa ENE 1.0 mph /  1.6 km/h 3.0 mph /  4.8 km/h 97 % 0.00 in /  0 mm 40 W/m2
10:50 37.8 °F /  3.2 °C 37.0 °F /  2.8 °C 30.37 in /  1028.3 hPa ENE 1.0 mph /  1.6 km/h 2.0 mph /  3.2 km/h 97 % 0.00 in /  0 mm 35 W/m2
10:55 37.8 °F /  3.2 °C 37.0 °F /  2.8 °C 30.37 in /  1028.3 hPa East 2.0 mph /  3.2 km/h 2.0 mph /  3.2 km/h 97 % 0.00 in /  0 mm 39 W/m2
11:00 37.8 °F /  3.2 °C 37.0 °F /  2.8 °C 30.37 in /  1028.3 hPa ENE 2.0 mph /  3.2 km/h 2.0 mph /  3.2 km/h 97 % 0.00 in /  0 mm 32 W/m2
11:05 37.8 °F /  3.2 °C 37.0 °F /  2.8 °C 30.37 in /  1028.3 hPa ENE 2.0 mph /  3.2 km/h 2.0 mph /  3.2 km/h 97 % 0.00 in /  0 mm 33 W/m2
11:10 37.8 °F /  3.2 °C 37.0 °F /  2.8 °C 30.37 in /  1028.3 hPa ENE 2.0 mph /  3.2 km/h 2.0 mph /  3.2 km/h 97 % 0.00 in /  0 mm 47 W/m2
11:20 37.9 °F /  3.3 °C 37.1 °F /  2.8 °C 30.37 in /  1028.3 hPa East 1.0 mph /  1.6 km/h 1.0 mph /  1.6 km/h 97 % 0.00 in /  0 mm 72 W/m2
11:25 37.9 °F /  3.3 °C 37.1 °F /  2.8 °C 30.38 in /  1028.7 hPa East 1.0 mph /  1.6 km/h 2.0 mph /  3.2 km/h 97 % 0.00 in /  0 mm 70 W/m2
11:30 38.0 °F /  3.3 °C 37.2 °F /  2.9 °C 30.38 in /  1028.7 hPa ESE 1.0 mph /  1.6 km/h 2.0 mph /  3.2 km/h 97 % 0.00 in /  0 mm 84 W/m2
11:35 38.0 °F /  3.3 °C 37.2 °F /  2.9 °C 30.38 in /  1028.7 hPa ESE 1.0 mph /  1.6 km/h 2.0 mph /  3.2 km/h 97 % 0.00 in /  0 mm 76 W/m2
11:40 38.0 °F /  3.3 °C 37.2 °F /  2.9 °C 30.38 in /  1028.7 hPa ESE 1.0 mph /  1.6 km/h 2.0 mph /  3.2 km/h 97 % 0.00 in /  0 mm 83 W/m2
11:50 38.1 °F /  3.4 °C 37.1 °F /  2.8 °C 30.38 in /  1028.7 hPa East 2.0 mph /  3.2 km/h 2.0 mph /  3.2 km/h 96 % 0.00 in /  0 mm 97 W/m2
11:55 38.2 °F /  3.4 °C 37.4 °F /  3 °C 30.38 in /  1028.7 hPa East 2.0 mph /  3.2 km/h 2.0 mph /  3.2 km/h 97 % 0.00 in /  0 mm 98 W/m2
12:00 38.3 °F /  3.5 °C 37.5 °F /  3.1 °C 30.38 in /  1028.7 hPa ESE 1.0 mph /  1.6 km/h 3.0 mph /  4.8 km/h 97 % 0.00 in /  0 mm 93 W/m2
12:05 38.4 °F /  3.6 °C 37.6 °F /  3.1 °C 30.38 in /  1028.7 hPa ENE 1.0 mph /  1.6 km/h 3.0 mph /  4.8 km/h 97 % 0.00 in /  0 mm 109 W/m2
12:10 38.5 °F /  3.6 °C 37.5 °F /  3.1 °C 30.38 in /  1028.7 hPa ENE 1.0 mph /  1.6 km/h 1.0 mph /  1.6 km/h 96 % 0.00 in /  0 mm 105 W/m2
12:15 38.4 °F /  3.6 °C 37.4 °F /  3 °C 30.38 in /  1028.7 hPa East 1.0 mph /  1.6 km/h 2.0 mph /  3.2 km/h 96 % 0.00 in /  0 mm 72 W/m2
12:25 38.4 °F /  3.6 °C 37.4 °F /  3 °C 30.39 in /  1029 hPa ENE 1.0 mph /  1.6 km/h 2.0 mph /  3.2 km/h 96 % 0.00 in /  0 mm 65 W/m2
12:30 38.4 °F /  3.6 °C 37.4 °F /  3 °C 30.39 in /  1029 hPa East 1.0 mph /  1.6 km/h 2.0 mph /  3.2 km/h 96 % 0.00 in /  0 mm 47 W/m2
12:35 38.3 °F /  3.5 °C 37.0 °F /  2.8 °C 30.39 in /  1029 hPa East 1.0 mph /  1.6 km/h 2.0 mph /  3.2 km/h 95 % 0.00 in /  0 mm 23 W/m2
12:40 38.2 °F /  3.4 °C 36.9 °F /  2.7 °C 30.39 in /  1029 hPa East 1.0 mph /  1.6 km/h 1.0 mph /  1.6 km/h 95 % 0.00 in /  0 mm 26 W/m2
12:50 38.3 °F /  3.5 °C 37.0 °F /  2.8 °C 30.39 in /  1029 hPa NE 2.0 mph /  3.2 km/h 6.0 mph /  9.7 km/h 95 % 0.00 in /  0 mm 32 W/m2
12:55 38.2 °F /  3.4 °C 36.9 °F /  2.7 °C 30.39 in /  1029 hPa ENE 2.0 mph /  3.2 km/h 6.0 mph /  9.7 km/h 95 % 0.00 in /  0 mm 81 W/m2
13:00 38.2 °F /  3.4 °C 36.9 °F /  2.7 °C 30.39 in /  1029 hPa East 2.0 mph /  3.2 km/h 6.0 mph /  9.7 km/h 95 % 0.00 in /  0 mm 91 W/m2
13:05 38.3 °F /  3.5 °C 37.0 °F /  2.8 °C 30.39 in /  1029 hPa East 2.0 mph /  3.2 km/h 6.0 mph /  9.7 km/h 95 % 0.00 in /  0 mm 125 W/m2
13:15 38.4 °F /  3.6 °C 36.8 °F /  2.7 °C 30.39 in /  1029 hPa East 3.0 mph /  4.8 km/h 3.0 mph /  4.8 km/h 94 % 0.00 in /  0 mm 98 W/m2
13:20 38.5 °F /  3.6 °C 36.9 °F /  2.7 °C 30.39 in /  1029 hPa ENE 1.0 mph /  1.6 km/h 2.0 mph /  3.2 km/h 94 % 0.00 in /  0 mm 132 W/m2
13:25 38.7 °F /  3.7 °C 37.1 °F /  2.8 °C 30.38 in /  1028.7 hPa East 1.0 mph /  1.6 km/h 2.0 mph /  3.2 km/h 94 % 0.00 in /  0 mm 176 W/m2
13:30 38.9 °F /  3.8 °C 37.3 °F /  2.9 °C 30.39 in /  1029 hPa ENE 1.0 mph /  1.6 km/h 1.0 mph /  1.6 km/h 94 % 0.00 in /  0 mm 149 W/m2
13:40 39.1 °F /  3.9 °C 37.2 °F /  2.9 °C 30.39 in /  1029 hPa ENE 2.0 mph /  3.2 km/h 5.0 mph /  8 km/h 93 % 0.00 in /  0 mm 135 W/m2
13:45 39.0 °F /  3.9 °C 36.9 °F /  2.7 °C 30.39 in /  1029 hPa ENE 3.0 mph /  4.8 km/h 5.0 mph /  8 km/h 92 % 0.00 in /  0 mm 123 W/m2
13:50 39.0 °F /  3.9 °C 36.9 °F /  2.7 °C 30.39 in /  1029 hPa East 3.0 mph /  4.8 km/h 6.0 mph /  9.7 km/h 92 % 0.00 in /  0 mm 121 W/m2
13:55 39.0 °F /  3.9 °C 36.6 °F /  2.6 °C 30.39 in /  1029 hPa ENE 3.0 mph /  4.8 km/h 6.0 mph /  9.7 km/h 91 % 0.00 in /  0 mm 98 W/m2
14:05 39.0 °F /  3.9 °C 36.6 °F /  2.6 °C 30.39 in /  1029 hPa East 2.0 mph /  3.2 km/h 4.0 mph /  6.4 km/h 91 % 0.00 in /  0 mm 302 W/m2
14:10 39.2 °F /  4 °C 36.8 °F /  2.7 °C 30.39 in /  1029 hPa ESE 2.0 mph /  3.2 km/h 2.0 mph /  3.2 km/h 91 % 0.00 in /  0 mm 176 W/m2
14:15 39.3 °F /  4.1 °C 36.9 °F /  2.7 °C 30.40 in /  1029.3 hPa ESE 1.0 mph /  1.6 km/h 2.0 mph /  3.2 km/h 91 % 0.00 in /  0 mm 137 W/m2
14:20 39.5 °F /  4.2 °C 36.8 °F /  2.7 °C 30.40 in /  1029.3 hPa East 1.0 mph /  1.6 km/h 2.0 mph /  3.2 km/h 90 % 0.00 in /  0 mm 56 W/m2
14:25 39.4 °F /  4.1 °C 36.4 °F /  2.4 °C 30.40 in /  1029.3 hPa ESE 2.0 mph /  3.2 km/h 7.0 mph /  11.3 km/h 89 % 0.00 in /  0 mm 51 W/m2
14:35 39.3 °F /  4.1 °C 36.3 °F /  2.4 °C 30.40 in /  1029.3 hPa East 3.0 mph /  4.8 km/h 3.0 mph /  4.8 km/h 89 % 0.00 in /  0 mm 77 W/m2
14:40 39.1 °F /  3.9 °C 36.1 °F /  2.3 °C 30.39 in /  1029 hPa ENE 2.0 mph /  3.2 km/h 2.0 mph /  3.2 km/h 89 % 0.00 in /  0 mm 113 W/m2
14:45 39.2 °F /  4 °C 36.2 °F /  2.3 °C 30.40 in /  1029.3 hPa NE 1.0 mph /  1.6 km/h 4.0 mph /  6.4 km/h 89 % 0.00 in /  0 mm 51 W/m2
14:50 39.1 °F /  3.9 °C 36.1 °F /  2.3 °C 30.40 in /  1029.3 hPa East 2.0 mph /  3.2 km/h 2.0 mph /  3.2 km/h 89 % 0.00 in /  0 mm 28 W/m2
14:55 39.0 °F /  3.9 °C 36.0 °F /  2.2 °C 30.40 in /  1029.3 hPa NE 3.0 mph /  4.8 km/h 5.0 mph /  8 km/h 89 % 0.00 in /  0 mm 21 W/m2
15:00 38.9 °F /  3.8 °C 36.2 °F /  2.3 °C 30.40 in /  1029.3 hPa East 3.0 mph /  4.8 km/h 3.0 mph /  4.8 km/h 90 % 0.00 in /  0 mm 47 W/m2
15:10 38.6 °F /  3.7 °C 35.9 °F /  2.2 °C 30.40 in /  1029.3 hPa East 2.0 mph /  3.2 km/h 2.0 mph /  3.2 km/h 90 % 0.00 in /  0 mm 79 W/m2
15:15 38.4 °F /  3.6 °C 36.0 °F /  2.2 °C 30.40 in /  1029.3 hPa East 2.0 mph /  3.2 km/h 2.0 mph /  3.2 km/h 91 % 0.00 in /  0 mm 72 W/m2
15:20 38.3 °F /  3.5 °C 35.9 °F /  2.2 °C 30.40 in /  1029.3 hPa ENE 3.0 mph /  4.8 km/h 3.0 mph /  4.8 km/h 91 % 0.00 in /  0 mm 72 W/m2
15:25 38.1 °F /  3.4 °C 35.7 °F /  2.1 °C 30.40 in /  1029.3 hPa ENE 3.0 mph /  4.8 km/h 3.0 mph /  4.8 km/h 91 % 0.00 in /  0 mm 76 W/m2
15:30 38.1 °F /  3.4 °C 35.7 °F /  2.1 °C 30.40 in /  1029.3 hPa ENE 2.0 mph /  3.2 km/h 6.0 mph /  9.7 km/h 91 % 0.00 in /  0 mm 76 W/m2
15:40 38.1 °F /  3.4 °C 35.7 °F /  2.1 °C 30.40 in /  1029.3 hPa ENE 1.0 mph /  1.6 km/h 3.0 mph /  4.8 km/h 91 % 0.00 in /  0 mm 70 W/m2
15:45 38.1 °F /  3.4 °C 36.0 °F /  2.2 °C 30.41 in /  1029.7 hPa East 1.0 mph /  1.6 km/h 3.0 mph /  4.8 km/h 92 % 0.00 in /  0 mm 49 W/m2
15:50 38.1 °F /  3.4 °C 36.0 °F /  2.2 °C 30.41 in /  1029.7 hPa East 1.0 mph /  1.6 km/h 1.0 mph /  1.6 km/h 92 % 0.00 in /  0 mm 56 W/m2
15:55 38.3 °F /  3.5 °C 36.2 °F /  2.3 °C 30.41 in /  1029.7 hPa Calm   5.0 mph /  8 km/h 92 % 0.00 in /  0 mm 42 W/m2
16:00 38.3 °F /  3.5 °C 36.2 °F /  2.3 °C 30.41 in /  1029.7 hPa Calm   2.0 mph /  3.2 km/h 92 % 0.00 in /  0 mm 37 W/m2
16:05 38.2 °F /  3.4 °C 36.1 °F /  2.3 °C 30.41 in /  1029.7 hPa East 1.0 mph /  1.6 km/h 2.0 mph /  3.2 km/h 92 % 0.00 in /  0 mm 47 W/m2
16:15 38.1 °F /  3.4 °C 35.7 °F /  2.1 °C 30.41 in /  1029.7 hPa NE 1.0 mph /  1.6 km/h 2.0 mph /  3.2 km/h 91 % 0.00 in /  0 mm 42 W/m2
16:20 38.0 °F /  3.3 °C 35.6 °F /  2 °C 30.41 in /  1029.7 hPa Calm   2.0 mph /  3.2 km/h 91 % 0.00 in /  0 mm 28 W/m2
16:25 38.0 °F /  3.3 °C 35.6 °F /  2 °C 30.41 in /  1029.7 hPa NE 1.0 mph /  1.6 km/h 2.0 mph /  3.2 km/h 91 % 0.00 in /  0 mm 18 W/m2
16:30 38.0 °F /  3.3 °C 35.6 °F /  2 °C 30.41 in /  1029.7 hPa ENE 1.0 mph /  1.6 km/h 1.0 mph /  1.6 km/h 91 % 0.00 in /  0 mm 12 W/m2
16:35 37.9 °F /  3.3 °C 35.5 °F /  1.9 °C 30.41 in /  1029.7 hPa SE 1.0 mph /  1.6 km/h 5.0 mph /  8 km/h 91 % 0.00 in /  0 mm 11 W/m2
16:45 37.9 °F /  3.3 °C 35.5 °F /  1.9 °C 30.42 in /  1030 hPa SE 1.0 mph /  1.6 km/h 2.0 mph /  3.2 km/h 91 % 0.00 in /  0 mm 9 W/m2
16:50 37.8 °F /  3.2 °C 35.4 °F /  1.9 °C 30.42 in /  1030 hPa Calm   2.0 mph /  3.2 km/h 91 % 0.00 in /  0 mm 5 W/m2
16:55 37.7 °F /  3.2 °C 35.3 °F /  1.8 °C 30.42 in /  1030 hPa Calm   2.0 mph /  3.2 km/h 91 % 0.00 in /  0 mm 0 W/m2
17:00 37.7 °F /  3.2 °C 35.3 °F /  1.8 °C 30.42 in /  1030 hPa Calm   2.0 mph /  3.2 km/h 91 % 0.00 in /  0 mm 0 W/m2
17:05 37.6 °F /  3.1 °C 35.2 °F /  1.8 °C 30.42 in /  1030 hPa Calm   2.0 mph /  3.2 km/h 91 % 0.00 in /  0 mm 0 W/m2
17:10 37.6 °F /  3.1 °C 35.2 °F /  1.8 °C 30.42 in /  1030 hPa Calm   2.0 mph /  3.2 km/h 91 % 0.00 in /  0 mm 0 W/m2
17:20 37.5 °F /  3.1 °C 35.1 °F /  1.7 °C 30.43 in /  1030.4 hPa NE 1.0 mph /  1.6 km/h 2.0 mph /  3.2 km/h 91 % 0.00 in /  0 mm 0 W/m2
17:25 37.4 °F /  3 °C 35.0 °F /  1.7 °C 30.43 in /  1030.4 hPa NE 2.0 mph /  3.2 km/h 2.0 mph /  3.2 km/h 91 % 0.00 in /  0 mm 0 W/m2
17:30 37.4 °F /  3 °C 34.7 °F /  1.5 °C 30.43 in /  1030.4 hPa ENE 3.0 mph /  4.8 km/h 3.0 mph /  4.8 km/h 90 % 0.00 in /  0 mm 0 W/m2
17:35 37.4 °F /  3 °C 34.7 °F /  1.5 °C 30.43 in /  1030.4 hPa East 2.0 mph /  3.2 km/h 3.0 mph /  4.8 km/h 90 % 0.00 in /  0 mm 0 W/m2
17:40 37.3 °F /  2.9 °C 34.6 °F /  1.4 °C 30.43 in /  1030.4 hPa East 1.0 mph /  1.6 km/h 1.0 mph /  1.6 km/h 90 % 0.00 in /  0 mm 0 W/m2
17:50 37.3 °F /  2.9 °C 34.6 °F /  1.4 °C 30.43 in /  1030.4 hPa East 2.0 mph /  3.2 km/h 2.0 mph /  3.2 km/h 90 % 0.00 in /  0 mm 0 W/m2
17:55 37.2 °F /  2.9 °C 34.5 °F /  1.4 °C 30.43 in /  1030.4 hPa ENE 2.0 mph /  3.2 km/h 3.0 mph /  4.8 km/h 90 % 0.00 in /  0 mm 0 W/m2
18:00 37.1 °F /  2.8 °C 34.2 °F /  1.2 °C 30.43 in /  1030.4 hPa ENE 2.0 mph /  3.2 km/h 4.0 mph /  6.4 km/h 89 % 0.00 in /  0 mm 0 W/m2
18:05 36.9 °F /  2.7 °C 34.0 °F /  1.1 °C 30.44 in /  1030.7 hPa ENE 3.0 mph /  4.8 km/h 4.0 mph /  6.4 km/h 89 % 0.00 in /  0 mm 0 W/m2
18:15 36.7 °F /  2.6 °C 33.5 °F /  0.8 °C 30.44 in /  1030.7 hPa East 2.0 mph /  3.2 km/h 3.0 mph /  4.8 km/h 88 % 0.00 in /  0 mm 0 W/m2
18:20 36.7 °F /  2.6 °C 33.5 °F /  0.8 °C 30.44 in /  1030.7 hPa ENE 2.0 mph /  3.2 km/h 2.0 mph /  3.2 km/h 88 % 0.00 in /  0 mm 0 W/m2
18:25 36.6 °F /  2.6 °C 33.4 °F /  0.8 °C 30.44 in /  1030.7 hPa ENE 2.0 mph /  3.2 km/h 2.0 mph /  3.2 km/h 88 % 0.00 in /  0 mm 0 W/m2
18:35 36.6 °F /  2.6 °C 33.7 °F /  0.9 °C 30.45 in /  1031 hPa ENE 1.0 mph /  1.6 km/h 2.0 mph /  3.2 km/h 89 % 0.00 in /  0 mm 0 W/m2
18:40 36.6 °F /  2.6 °C 33.7 °F /  0.9 °C 30.45 in /  1031 hPa East 1.0 mph /  1.6 km/h 2.0 mph /  3.2 km/h 89 % 0.00 in /  0 mm 0 W/m2
18:45 36.5 °F /  2.5 °C 33.6 °F /  0.9 °C 30.45 in /  1031 hPa ESE 1.0 mph /  1.6 km/h 2.0 mph /  3.2 km/h 89 % 0.00 in /  0 mm 0 W/m2
18:50 36.5 °F /  2.5 °C 33.6 °F /  0.9 °C 30.45 in /  1031 hPa ENE 1.0 mph /  1.6 km/h 1.0 mph /  1.6 km/h 89 % 0.00 in /  0 mm 0 W/m2
19:00 36.5 °F /  2.5 °C 33.8 °F /  1 °C 30.45 in /  1031 hPa ENE 1.0 mph /  1.6 km/h 1.0 mph /  1.6 km/h 90 % 0.00 in /  0 mm 0 W/m2
19:05 36.5 °F /  2.5 °C 33.8 °F /  1 °C 30.45 in /  1031 hPa ENE 1.0 mph /  1.6 km/h 2.0 mph /  3.2 km/h 90 % 0.00 in /  0 mm 0 W/m2
19:10 36.4 °F /  2.4 °C 33.7 °F /  0.9 °C 30.45 in /  1031 hPa ENE 1.0 mph /  1.6 km/h 1.0 mph /  1.6 km/h 90 % 0.00 in /  0 mm 0 W/m2
19:15 36.4 °F /  2.4 °C 33.7 °F /  0.9 °C 30.45 in /  1031 hPa East 1.0 mph /  1.6 km/h 2.0 mph /  3.2 km/h 90 % 0.00 in /  0 mm 0 W/m2
19:20 36.4 °F /  2.4 °C 33.7 °F /  0.9 °C 30.45 in /  1031 hPa East 1.0 mph /  1.6 km/h 1.0 mph /  1.6 km/h 90 % 0.00 in /  0 mm 0 W/m2
19:30 36.3 °F /  2.4 °C 33.9 °F /  1.1 °C 30.45 in /  1031 hPa ENE 1.0 mph /  1.6 km/h 1.0 mph /  1.6 km/h 91 % 0.00 in /  0 mm 0 W/m2
19:35 36.3 °F /  2.4 °C 33.9 °F /  1.1 °C 30.45 in /  1031 hPa ENE 2.0 mph /  3.2 km/h 4.0 mph /  6.4 km/h 91 % 0.00 in /  0 mm 0 W/m2
19:40 36.4 °F /  2.4 °C 34.0 °F /  1.1 °C 30.45 in /  1031 hPa ENE 2.0 mph /  3.2 km/h 7.0 mph /  11.3 km/h 91 % 0.00 in /  0 mm 0 W/m2
19:45 36.4 °F /  2.4 °C 34.3 °F /  1.3 °C 30.45 in /  1031 hPa ENE 2.0 mph /  3.2 km/h 7.0 mph /  11.3 km/h 92 % 0.00 in /  0 mm 0 W/m2
19:50 36.4 °F /  2.4 °C 34.3 °F /  1.3 °C 30.45 in /  1031 hPa ENE 1.0 mph /  1.6 km/h 2.0 mph /  3.2 km/h 92 % 0.00 in /  0 mm 0 W/m2
19:55 36.3 °F /  2.4 °C 34.2 °F /  1.2 °C 30.45 in /  1031 hPa ENE 1.0 mph /  1.6 km/h 2.0 mph /  3.2 km/h 92 % 0.00 in /  0 mm 0 W/m2
20:05 36.3 °F /  2.4 °C 34.2 °F /  1.2 °C 30.45 in /  1031 hPa ENE 1.0 mph /  1.6 km/h 2.0 mph /  3.2 km/h 92 % 0.00 in /  0 mm 0 W/m2
20:10 36.3 °F /  2.4 °C 34.2 °F /  1.2 °C 30.46 in /  1031.4 hPa East 1.0 mph /  1.6 km/h 2.0 mph /  3.2 km/h 92 % 0.00 in /  0 mm 0 W/m2
20:15 36.2 °F /  2.3 °C 34.1 °F /  1.2 °C 30.46 in /  1031.4 hPa ENE 1.0 mph /  1.6 km/h 2.0 mph /  3.2 km/h 92 % 0.00 in /  0 mm 0 W/m2
20:20 36.2 °F /  2.3 °C 34.1 °F /  1.2 °C 30.45 in /  1031 hPa ENE 1.0 mph /  1.6 km/h 1.0 mph /  1.6 km/h 92 % 0.00 in /  0 mm 0 W/m2
20:25 36.2 °F /  2.3 °C 34.4 °F /  1.3 °C 30.45 in /  1031 hPa Calm   2.0 mph /  3.2 km/h 93 % 0.00 in /  0 mm 0 W/m2
20:35 36.1 °F /  2.3 °C 34.0 °F /  1.1 °C 30.45 in /  1031 hPa SE 3.0 mph /  4.8 km/h 4.0 mph /  6.4 km/h 92 % 0.00 in /  0 mm 0 W/m2
20:40 36.0 °F /  2.2 °C 33.9 °F /  1.1 °C 30.45 in /  1031 hPa East 3.0 mph /  4.8 km/h 3.0 mph /  4.8 km/h 92 % 0.00 in /  0 mm 0 W/m2
20:45 36.1 °F /  2.3 °C 34.0 °F /  1.1 °C 30.46 in /  1031.4 hPa ESE 2.0 mph /  3.2 km/h 3.0 mph /  4.8 km/h 92 % 0.00 in /  0 mm 0 W/m2
20:50 36.1 °F /  2.3 °C 34.3 °F /  1.3 °C 30.46 in /  1031.4 hPa ESE 1.0 mph /  1.6 km/h 3.0 mph /  4.8 km/h 93 % 0.00 in /  0 mm 0 W/m2
20:55 36.0 °F /  2.2 °C 34.2 °F /  1.2 °C 30.46 in /  1031.4 hPa East 2.0 mph /  3.2 km/h 3.0 mph /  4.8 km/h 93 % 0.00 in /  0 mm 0 W/m2
21:00 35.9 °F /  2.2 °C 34.1 °F /  1.2 °C 30.46 in /  1031.4 hPa East 2.0 mph /  3.2 km/h 2.0 mph /  3.2 km/h 93 % 0.00 in /  0 mm 0 W/m2
21:10 35.8 °F /  2.1 °C 34.0 °F /  1.1 °C 30.46 in /  1031.4 hPa East 1.0 mph /  1.6 km/h 2.0 mph /  3.2 km/h 93 % 0.00 in /  0 mm 0 W/m2
21:15 35.8 °F /  2.1 °C 34.0 °F /  1.1 °C 30.46 in /  1031.4 hPa East 1.0 mph /  1.6 km/h 2.0 mph /  3.2 km/h 93 % 0.00 in /  0 mm 0 W/m2
21:25 35.7 °F /  2.1 °C 33.9 °F /  1.1 °C 30.46 in /  1031.4 hPa East 1.0 mph /  1.6 km/h 4.0 mph /  6.4 km/h 93 % 0.00 in /  0 mm 0 W/m2
21:30 35.7 °F /  2.1 °C 33.9 °F /  1.1 °C 30.46 in /  1031.4 hPa East 1.0 mph /  1.6 km/h 1.0 mph /  1.6 km/h 93 % 0.00 in /  0 mm 0 W/m2
21:35 35.7 °F /  2.1 °C 33.9 °F /  1.1 °C 30.47 in /  1031.7 hPa East 1.0 mph /  1.6 km/h 2.0 mph /  3.2 km/h 93 % 0.00 in /  0 mm 0 W/m2
21:45 35.7 °F /  2.1 °C 33.9 °F /  1.1 °C 30.47 in /  1031.7 hPa Calm   2.0 mph /  3.2 km/h 93 % 0.00 in /  0 mm 0 W/m2
21:50 35.7 °F /  2.1 °C 33.9 °F /  1.1 °C 30.46 in /  1031.4 hPa Calm   2.0 mph /  3.2 km/h 93 % 0.00 in /  0 mm 0 W/m2
21:55 35.7 °F /  2.1 °C 33.9 °F /  1.1 °C 30.46 in /  1031.4 hPa Calm   2.0 mph /  3.2 km/h 93 % 0.00 in /  0 mm 0 W/m2
22:00 35.7 °F /  2.1 °C 33.9 °F /  1.1 °C 30.46 in /  1031.4 hPa Calm   2.0 mph /  3.2 km/h 93 % 0.00 in /  0 mm 0 W/m2
22:05 35.6 °F /  2 °C 33.8 °F /  1 °C 30.46 in /  1031.4 hPa Calm   2.0 mph /  3.2 km/h 93 % 0.00 in /  0 mm 0 W/m2
22:15 35.5 °F /  1.9 °C 33.7 °F /  0.9 °C 30.46 in /  1031.4 hPa Calm   2.0 mph /  3.2 km/h 93 % 0.00 in /  0 mm 0 W/m2
22:20 35.5 °F /  1.9 °C 33.7 °F /  0.9 °C 30.46 in /  1031.4 hPa Calm   2.0 mph /  3.2 km/h 93 % 0.00 in /  0 mm 0 W/m2
22:25 35.5 °F /  1.9 °C 33.7 °F /  0.9 °C 30.46 in /  1031.4 hPa Calm   2.0 mph /  3.2 km/h 93 % 0.00 in /  0 mm 0 W/m2
22:30 35.5 °F /  1.9 °C 33.9 °F /  1.1 °C 30.46 in /  1031.4 hPa Calm   2.0 mph /  3.2 km/h 94 % 0.00 in /  0 mm 0 W/m2
22:35 35.4 °F /  1.9 °C 33.8 °F /  1 °C 30.46 in /  1031.4 hPa Calm   2.0 mph /  3.2 km/h 94 % 0.00 in /  0 mm 0 W/m2
22:40 35.4 °F /  1.9 °C 33.6 °F /  0.9 °C 30.46 in /  1031.4 hPa Calm   2.0 mph /  3.2 km/h 93 % 0.00 in /  0 mm 0 W/m2
22:50 35.4 °F /  1.9 °C 33.6 °F /  0.9 °C 30.46 in /  1031.4 hPa Calm   2.0 mph /  3.2 km/h 93 % 0.00 in /  0 mm 0 W/m2
22:55 35.4 °F /  1.9 °C 33.8 °F /  1 °C 30.45 in /  1031 hPa Calm   2.0 mph /  3.2 km/h 94 % 0.00 in /  0 mm 0 W/m2
23:00 35.4 °F /  1.9 °C 33.6 °F /  0.9 °C 30.46 in /  1031.4 hPa Calm   2.0 mph /  3.2 km/h 93 % 0.00 in /  0 mm 0 W/m2
23:05 35.3 °F /  1.8 °C 33.5 °F /  0.8 °C 30.46 in /  1031.4 hPa Calm   2.0 mph /  3.2 km/h 93 % 0.00 in /  0 mm 0 W/m2
23:10 35.3 °F /  1.8 °C 33.7 °F /  0.9 °C 30.46 in /  1031.4 hPa Calm   2.0 mph /  3.2 km/h 94 % 0.00 in /  0 mm 0 W/m2
23:20 35.3 °F /  1.8 °C 33.7 °F /  0.9 °C 30.46 in /  1031.4 hPa Calm   2.0 mph /  3.2 km/h 94 % 0.00 in /  0 mm 0 W/m2
23:25 35.3 °F /  1.8 °C 33.7 °F /  0.9 °C 30.46 in /  1031.4 hPa Calm   2.0 mph /  3.2 km/h 94 % 0.00 in /  0 mm 0 W/m2
23:30 35.2 °F /  1.8 °C 33.6 °F /  0.9 °C 30.46 in /  1031.4 hPa Calm   2.0 mph /  3.2 km/h 94 % 0.00 in /  0 mm 0 W/m2
23:35 35.2 °F /  1.8 °C 33.6 °F /  0.9 °C 30.46 in /  1031.4 hPa Calm   2.0 mph /  3.2 km/h 94 % 0.00 in /  0 mm 0 W/m2
23:40 35.2 °F /  1.8 °C 33.6 °F /  0.9 °C 30.46 in /  1031.4 hPa Calm   2.0 mph /  3.2 km/h 94 % 0.00 in /  0 mm 0 W/m2
23:45 35.2 °F /  1.8 °C 33.6 °F /  0.9 °C 30.46 in /  1031.4 hPa Calm   2.0 mph /  3.2 km/h 94 % 0.00 in /  0 mm 0 W/m2
23:55 35.1 °F /  1.7 °C 33.5 °F /  0.8 °C 30.46 in /  1031.4 hPa Calm   2.0 mph /  3.2 km/h 94 % 0.00 in /  0 mm 0 W/m2
Delerius-Weather
Compliments of Weather Underground - 2 mb

Data updates at regular intervals.